sensor_id;sensor_type;location;lat;lon;timestamp;P1;durP1;ratioP1;P2;durP2;ratioP2
38787;SDS011;24536;45.488;12.238;2023-06-14T00:01:35;3.17;;;2.88;;
38787;SDS011;24536;45.488;12.238;2023-06-14T00:04:01;3.42;;;2.88;;
38787;SDS011;24536;45.488;12.238;2023-06-14T00:06:28;4.28;;;3.10;;
38787;SDS011;24536;45.488;12.238;2023-06-14T00:08:53;3.53;;;3.10;;
38787;SDS011;24536;45.488;12.238;2023-06-14T00:11:19;3.70;;;2.95;;
38787;SDS011;24536;45.488;12.238;2023-06-14T00:13:46;3.78;;;2.95;;
38787;SDS011;24536;45.488;12.238;2023-06-14T00:16:12;3.03;;;2.72;;
38787;SDS011;24536;45.488;12.238;2023-06-14T00:18:38;3.42;;;3.08;;
38787;SDS011;24536;45.488;12.238;2023-06-14T00:21:04;5.57;;;3.60;;
38787;SDS011;24536;45.488;12.238;2023-06-14T00:23:30;5.75;;;3.30;;
38787;SDS011;24536;45.488;12.238;2023-06-14T00:25:56;4.50;;;3.63;;
38787;SDS011;24536;45.488;12.238;2023-06-14T00:28:21;4.85;;;3.28;;
38787;SDS011;24536;45.488;12.238;2023-06-14T00:30:47;4.15;;;2.75;;
38787;SDS011;24536;45.488;12.238;2023-06-14T00:33:13;4.45;;;3.70;;
38787;SDS011;24536;45.488;12.238;2023-06-14T00:35:39;3.90;;;3.28;;
38787;SDS011;24536;45.488;12.238;2023-06-14T00:38:05;3.35;;;3.03;;
38787;SDS011;24536;45.488;12.238;2023-06-14T00:40:30;4.45;;;3.20;;
38787;SDS011;24536;45.488;12.238;2023-06-14T00:42:56;5.78;;;3.00;;
38787;SDS011;24536;45.488;12.238;2023-06-14T00:45:22;6.30;;;3.90;;
38787;SDS011;24536;45.488;12.238;2023-06-14T00:47:48;6.55;;;3.58;;
38787;SDS011;24536;45.488;12.238;2023-06-14T00:50:16;5.22;;;3.03;;
38787;SDS011;24536;45.488;12.238;2023-06-14T00:52:42;4.05;;;3.17;;
38787;SDS011;24536;45.488;12.238;2023-06-14T00:55:08;3.58;;;3.17;;
38787;SDS011;24536;45.488;12.238;2023-06-14T00:57:34;4.28;;;3.22;;
38787;SDS011;24536;45.488;12.238;2023-06-14T01:00:03;3.92;;;3.00;;
38787;SDS011;24536;45.488;12.238;2023-06-14T01:02:33;3.95;;;3.00;;
38787;SDS011;24536;45.488;12.238;2023-06-14T01:05:01;5.13;;;3.17;;
38787;SDS011;24536;45.488;12.238;2023-06-14T01:07:43;3.70;;;3.25;;
38787;SDS011;24536;45.488;12.238;2023-06-14T01:13:47;4.03;;;3.15;;
38787;SDS011;24536;45.488;12.238;2023-06-14T01:16:16;4.35;;;3.20;;
38787;SDS011;24536;45.488;12.238;2023-06-14T01:18:42;6.00;;;3.10;;
38787;SDS011;24536;45.488;12.238;2023-06-14T01:21:22;4.18;;;3.42;;
38787;SDS011;24536;45.488;12.238;2023-06-14T01:23:49;4.60;;;3.50;;
38787;SDS011;24536;45.488;12.238;2023-06-14T01:26:20;5.30;;;3.75;;
38787;SDS011;24536;45.488;12.238;2023-06-14T01:28:47;5.10;;;3.63;;
38787;SDS011;24536;45.488;12.238;2023-06-14T01:31:16;5.65;;;3.97;;
38787;SDS011;24536;45.488;12.238;2023-06-14T01:33:44;4.15;;;3.47;;
38787;SDS011;24536;45.488;12.238;2023-06-14T01:36:11;4.05;;;3.60;;
38787;SDS011;24536;45.488;12.238;2023-06-14T01:38:38;4.25;;;3.70;;
38787;SDS011;24536;45.488;12.238;2023-06-14T01:41:05;3.47;;;3.03;;
38787;SDS011;24536;45.488;12.238;2023-06-14T01:43:31;3.65;;;2.80;;
38787;SDS011;24536;45.488;12.238;2023-06-14T01:45:59;3.40;;;3.03;;
38787;SDS011;24536;45.488;12.238;2023-06-14T01:48:26;3.97;;;3.33;;
38787;SDS011;24536;45.488;12.238;2023-06-14T01:50:52;5.82;;;3.65;;
38787;SDS011;24536;45.488;12.238;2023-06-14T01:53:18;3.80;;;3.03;;
38787;SDS011;24536;45.488;12.238;2023-06-14T01:55:44;5.28;;;3.30;;
38787;SDS011;24536;45.488;12.238;2023-06-14T01:58:13;4.80;;;3.05;;
38787;SDS011;24536;45.488;12.238;2023-06-14T02:00:41;4.10;;;3.30;;
38787;SDS011;24536;45.488;12.238;2023-06-14T02:03:08;5.03;;;3.35;;
38787;SDS011;24536;45.488;12.238;2023-06-14T02:05:34;4.97;;;2.80;;
38787;SDS011;24536;45.488;12.238;2023-06-14T02:08:00;2.85;;;2.55;;
38787;SDS011;24536;45.488;12.238;2023-06-14T02:10:26;3.33;;;2.58;;
38787;SDS011;24536;45.488;12.238;2023-06-14T02:12:51;3.00;;;2.78;;
38787;SDS011;24536;45.488;12.238;2023-06-14T02:15:17;5.15;;;3.10;;
38787;SDS011;24536;45.488;12.238;2023-06-14T02:17:44;3.40;;;2.97;;
38787;SDS011;24536;45.488;12.238;2023-06-14T02:20:14;4.45;;;2.33;;
38787;SDS011;24536;45.488;12.238;2023-06-14T02:22:40;3.75;;;2.70;;
38787;SDS011;24536;45.488;12.238;2023-06-14T02:25:06;3.53;;;2.60;;
38787;SDS011;24536;45.488;12.238;2023-06-14T02:27:33;3.38;;;2.75;;
38787;SDS011;24536;45.488;12.238;2023-06-14T02:29:59;3.40;;;2.50;;
38787;SDS011;24536;45.488;12.238;2023-06-14T02:32:25;4.57;;;2.75;;
38787;SDS011;24536;45.488;12.238;2023-06-14T02:34:52;3.45;;;2.92;;
38787;SDS011;24536;45.488;12.238;2023-06-14T02:37:18;3.38;;;2.47;;
38787;SDS011;24536;45.488;12.238;2023-06-14T02:39:44;3.40;;;2.50;;
38787;SDS011;24536;45.488;12.238;2023-06-14T02:42:10;3.85;;;2.60;;
38787;SDS011;24536;45.488;12.238;2023-06-14T02:44:36;3.70;;;2.63;;
38787;SDS011;24536;45.488;12.238;2023-06-14T02:47:02;3.67;;;2.83;;
38787;SDS011;24536;45.488;12.238;2023-06-14T02:49:28;3.88;;;2.60;;
38787;SDS011;24536;45.488;12.238;2023-06-14T02:51:54;3.17;;;2.88;;
38787;SDS011;24536;45.488;12.238;2023-06-14T02:54:21;2.40;;;2.20;;
38787;SDS011;24536;45.488;12.238;2023-06-14T02:56:46;3.70;;;2.47;;
38787;SDS011;24536;45.488;12.238;2023-06-14T02:59:12;4.63;;;2.33;;
38787;SDS011;24536;45.488;12.238;2023-06-14T03:01:39;3.20;;;2.38;;
38787;SDS011;24536;45.488;12.238;2023-06-14T03:04:08;2.20;;;1.90;;
38787;SDS011;24536;45.488;12.238;2023-06-14T03:06:35;6.25;;;2.55;;
38787;SDS011;24536;45.488;12.238;2023-06-14T03:09:01;3.92;;;2.60;;
38787;SDS011;24536;45.488;12.238;2023-06-14T03:11:30;2.92;;;2.60;;
38787;SDS011;24536;45.488;12.238;2023-06-14T03:13:56;4.78;;;2.35;;
38787;SDS011;24536;45.488;12.238;2023-06-14T03:16:22;4.05;;;2.50;;
38787;SDS011;24536;45.488;12.238;2023-06-14T03:18:49;3.47;;;2.85;;
38787;SDS011;24536;45.488;12.238;2023-06-14T03:21:16;3.55;;;2.67;;
38787;SDS011;24536;45.488;12.238;2023-06-14T03:23:43;2.80;;;2.15;;
38787;SDS011;24536;45.488;12.238;2023-06-14T03:26:09;2.75;;;2.38;;
38787;SDS011;24536;45.488;12.238;2023-06-14T03:28:38;3.33;;;2.40;;
38787;SDS011;24536;45.488;12.238;2023-06-14T03:31:03;5.05;;;2.75;;
38787;SDS011;24536;45.488;12.238;2023-06-14T03:33:29;3.47;;;2.60;;
38787;SDS011;24536;45.488;12.238;2023-06-14T03:35:55;3.25;;;2.50;;
38787;SDS011;24536;45.488;12.238;2023-06-14T03:38:21;3.00;;;2.50;;
38787;SDS011;24536;45.488;12.238;2023-06-14T03:40:47;3.10;;;2.40;;
38787;SDS011;24536;45.488;12.238;2023-06-14T03:43:12;2.63;;;2.25;;
38787;SDS011;24536;45.488;12.238;2023-06-14T03:45:38;3.42;;;2.80;;
38787;SDS011;24536;45.488;12.238;2023-06-14T03:48:04;3.80;;;2.88;;
38787;SDS011;24536;45.488;12.238;2023-06-14T03:50:31;2.78;;;2.47;;
38787;SDS011;24536;45.488;12.238;2023-06-14T03:52:57;4.10;;;2.63;;
38787;SDS011;24536;45.488;12.238;2023-06-14T03:55:23;3.88;;;2.83;;
38787;SDS011;24536;45.488;12.238;2023-06-14T03:57:50;3.53;;;2.80;;
38787;SDS011;24536;45.488;12.238;2023-06-14T04:00:16;3.95;;;2.83;;
38787;SDS011;24536;45.488;12.238;2023-06-14T04:02:43;4.13;;;3.20;;
38787;SDS011;24536;45.488;12.238;2023-06-14T04:05:09;3.95;;;3.10;;
38787;SDS011;24536;45.488;12.238;2023-06-14T04:07:35;3.35;;;3.05;;
38787;SDS011;24536;45.488;12.238;2023-06-14T04:10:09;2.83;;;2.53;;
38787;SDS011;24536;45.488;12.238;2023-06-14T04:12:38;3.42;;;2.88;;
38787;SDS011;24536;45.488;12.238;2023-06-14T04:15:05;3.03;;;2.72;;
38787;SDS011;24536;45.488;12.238;2023-06-14T04:17:31;3.50;;;2.78;;
38787;SDS011;24536;45.488;12.238;2023-06-14T04:20:00;2.50;;;2.30;;
38787;SDS011;24536;45.488;12.238;2023-06-14T04:22:28;3.13;;;2.30;;
38787;SDS011;24536;45.488;12.238;2023-06-14T04:24:54;4.50;;;2.67;;
38787;SDS011;24536;45.488;12.238;2023-06-14T04:27:21;3.78;;;2.58;;
38787;SDS011;24536;45.488;12.238;2023-06-14T04:29:50;5.15;;;3.42;;
38787;SDS011;24536;45.488;12.238;2023-06-14T04:32:25;3.22;;;2.53;;
38787;SDS011;24536;45.488;12.238;2023-06-14T04:34:54;3.30;;;2.60;;
38787;SDS011;24536;45.488;12.238;2023-06-14T04:37:23;6.38;;;2.88;;
38787;SDS011;24536;45.488;12.238;2023-06-14T04:39:49;3.22;;;2.40;;
38787;SDS011;24536;45.488;12.238;2023-06-14T04:42:15;3.08;;;2.67;;
38787;SDS011;24536;45.488;12.238;2023-06-14T04:44:41;2.97;;;2.50;;
38787;SDS011;24536;45.488;12.238;2023-06-14T04:47:08;5.18;;;3.35;;
38787;SDS011;24536;45.488;12.238;2023-06-14T04:49:34;5.07;;;3.17;;
38787;SDS011;24536;45.488;12.238;2023-06-14T04:52:00;2.45;;;2.10;;
38787;SDS011;24536;45.488;12.238;2023-06-14T04:54:26;4.47;;;2.90;;
38787;SDS011;24536;45.488;12.238;2023-06-14T04:56:52;4.13;;;2.58;;
38787;SDS011;24536;45.488;12.238;2023-06-14T04:59:20;2.63;;;2.38;;
38787;SDS011;24536;45.488;12.238;2023-06-14T05:01:48;3.00;;;2.70;;
38787;SDS011;24536;45.488;12.238;2023-06-14T05:04:14;2.63;;;2.42;;
38787;SDS011;24536;45.488;12.238;2023-06-14T05:06:44;3.53;;;2.70;;
38787;SDS011;24536;45.488;12.238;2023-06-14T05:09:11;3.83;;;2.90;;
38787;SDS011;24536;45.488;12.238;2023-06-14T05:11:38;3.97;;;2.60;;
38787;SDS011;24536;45.488;12.238;2023-06-14T05:14:03;4.50;;;2.65;;
38787;SDS011;24536;45.488;12.238;2023-06-14T05:16:29;2.83;;;2.42;;
38787;SDS011;24536;45.488;12.238;2023-06-14T05:18:55;3.75;;;2.63;;
38787;SDS011;24536;45.488;12.238;2023-06-14T05:21:21;3.90;;;2.75;;
38787;SDS011;24536;45.488;12.238;2023-06-14T05:23:46;3.65;;;2.15;;
38787;SDS011;24536;45.488;12.238;2023-06-14T05:26:12;2.70;;;2.30;;
38787;SDS011;24536;45.488;12.238;2023-06-14T05:28:38;2.90;;;2.28;;
38787;SDS011;24536;45.488;12.238;2023-06-14T05:31:04;2.47;;;2.28;;
38787;SDS011;24536;45.488;12.238;2023-06-14T05:33:29;6.30;;;2.40;;
38787;SDS011;24536;45.488;12.238;2023-06-14T05:35:55;4.13;;;3.08;;
38787;SDS011;24536;45.488;12.238;2023-06-14T05:38:21;2.80;;;2.20;;
38787;SDS011;24536;45.488;12.238;2023-06-14T05:40:46;3.53;;;2.20;;
38787;SDS011;24536;45.488;12.238;2023-06-14T05:43:12;3.05;;;2.45;;
38787;SDS011;24536;45.488;12.238;2023-06-14T05:45:38;2.72;;;2.15;;
38787;SDS011;24536;45.488;12.238;2023-06-14T05:48:03;2.90;;;2.08;;
38787;SDS011;24536;45.488;12.238;2023-06-14T05:50:30;3.35;;;2.70;;
38787;SDS011;24536;45.488;12.238;2023-06-14T05:52:55;3.95;;;2.42;;
38787;SDS011;24536;45.488;12.238;2023-06-14T05:55:21;3.25;;;2.47;;
38787;SDS011;24536;45.488;12.238;2023-06-14T05:57:47;2.70;;;2.15;;
38787;SDS011;24536;45.488;12.238;2023-06-14T06:00:13;4.95;;;2.80;;
38787;SDS011;24536;45.488;12.238;2023-06-14T06:02:41;4.57;;;2.58;;
38787;SDS011;24536;45.488;12.238;2023-06-14T06:05:08;3.95;;;3.03;;
38787;SDS011;24536;45.488;12.238;2023-06-14T06:07:36;4.10;;;2.50;;
38787;SDS011;24536;45.488;12.238;2023-06-14T06:10:02;8.00;;;2.20;;
38787;SDS011;24536;45.488;12.238;2023-06-14T06:12:29;4.53;;;2.45;;
38787;SDS011;24536;45.488;12.238;2023-06-14T06:14:54;2.67;;;2.47;;
38787;SDS011;24536;45.488;12.238;2023-06-14T06:17:20;4.75;;;2.35;;
38787;SDS011;24536;45.488;12.238;2023-06-14T06:19:46;4.43;;;2.30;;
38787;SDS011;24536;45.488;12.238;2023-06-14T06:22:12;2.75;;;2.30;;
38787;SDS011;24536;45.488;12.238;2023-06-14T06:24:38;3.15;;;2.70;;
38787;SDS011;24536;45.488;12.238;2023-06-14T06:27:03;5.80;;;2.35;;
38787;SDS011;24536;45.488;12.238;2023-06-14T06:29:29;3.85;;;2.13;;
38787;SDS011;24536;45.488;12.238;2023-06-14T06:31:55;2.88;;;2.08;;
38787;SDS011;24536;45.488;12.238;2023-06-14T06:34:21;4.13;;;2.08;;
38787;SDS011;24536;45.488;12.238;2023-06-14T06:36:47;3.42;;;2.17;;
38787;SDS011;24536;45.488;12.238;2023-06-14T06:39:13;4.68;;;2.63;;
38787;SDS011;24536;45.488;12.238;2023-06-14T06:41:40;2.40;;;2.20;;
38787;SDS011;24536;45.488;12.238;2023-06-14T06:44:06;4.78;;;2.65;;
38787;SDS011;24536;45.488;12.238;2023-06-14T06:46:32;4.75;;;2.50;;
38787;SDS011;24536;45.488;12.238;2023-06-14T06:49:00;3.50;;;2.22;;
38787;SDS011;24536;45.488;12.238;2023-06-14T06:51:25;4.00;;;2.10;;
38787;SDS011;24536;45.488;12.238;2023-06-14T06:53:52;2.72;;;1.92;;
38787;SDS011;24536;45.488;12.238;2023-06-14T06:56:18;2.92;;;2.20;;
38787;SDS011;24536;45.488;12.238;2023-06-14T06:58:44;5.05;;;1.85;;
38787;SDS011;24536;45.488;12.238;2023-06-14T07:01:10;3.05;;;2.63;;
38787;SDS011;24536;45.488;12.238;2023-06-14T07:03:36;6.50;;;2.25;;
38787;SDS011;24536;45.488;12.238;2023-06-14T07:06:02;2.72;;;2.45;;
38787;SDS011;24536;45.488;12.238;2023-06-14T07:08:28;2.80;;;2.42;;
38787;SDS011;24536;45.488;12.238;2023-06-14T07:10:54;5.35;;;2.85;;
38787;SDS011;24536;45.488;12.238;2023-06-14T07:13:20;3.10;;;2.67;;
38787;SDS011;24536;45.488;12.238;2023-06-14T07:15:46;5.93;;;3.08;;
38787;SDS011;24536;45.488;12.238;2023-06-14T07:18:12;2.55;;;2.25;;
38787;SDS011;24536;45.488;12.238;2023-06-14T07:20:38;4.13;;;2.17;;
38787;SDS011;24536;45.488;12.238;2023-06-14T07:23:04;4.88;;;2.05;;
38787;SDS011;24536;45.488;12.238;2023-06-14T07:25:30;3.75;;;2.25;;
38787;SDS011;24536;45.488;12.238;2023-06-14T07:27:56;3.35;;;1.95;;
38787;SDS011;24536;45.488;12.238;2023-06-14T07:30:22;4.05;;;2.22;;
38787;SDS011;24536;45.488;12.238;2023-06-14T07:32:51;5.03;;;2.25;;
38787;SDS011;24536;45.488;12.238;2023-06-14T07:35:18;1.60;;;1.50;;
38787;SDS011;24536;45.488;12.238;2023-06-14T07:37:43;4.50;;;2.47;;
38787;SDS011;24536;45.488;12.238;2023-06-14T07:40:10;4.13;;;2.20;;
38787;SDS011;24536;45.488;12.238;2023-06-14T07:42:36;4.18;;;2.42;;
38787;SDS011;24536;45.488;12.238;2023-06-14T07:45:05;5.57;;;2.50;;
38787;SDS011;24536;45.488;12.238;2023-06-14T07:47:31;2.03;;;1.70;;
38787;SDS011;24536;45.488;12.238;2023-06-14T07:49:58;2.47;;;1.65;;
38787;SDS011;24536;45.488;12.238;2023-06-14T07:52:23;2.47;;;1.83;;
38787;SDS011;24536;45.488;12.238;2023-06-14T07:54:49;2.45;;;1.73;;
38787;SDS011;24536;45.488;12.238;2023-06-14T07:57:15;5.03;;;2.47;;
38787;SDS011;24536;45.488;12.238;2023-06-14T07:59:41;3.47;;;1.92;;
38787;SDS011;24536;45.488;12.238;2023-06-14T08:02:07;4.28;;;2.13;;
38787;SDS011;24536;45.488;12.238;2023-06-14T08:04:33;1.83;;;1.60;;
38787;SDS011;24536;45.488;12.238;2023-06-14T08:06:59;3.25;;;2.20;;
38787;SDS011;24536;45.488;12.238;2023-06-14T08:09:25;2.75;;;2.15;;
38787;SDS011;24536;45.488;12.238;2023-06-14T08:11:53;2.20;;;1.75;;
38787;SDS011;24536;45.488;12.238;2023-06-14T08:14:19;4.43;;;1.77;;
38787;SDS011;24536;45.488;12.238;2023-06-14T08:16:45;4.53;;;1.98;;
38787;SDS011;24536;45.488;12.238;2023-06-14T08:19:10;2.67;;;1.80;;
38787;SDS011;24536;45.488;12.238;2023-06-14T08:21:36;4.25;;;2.00;;
38787;SDS011;24536;45.488;12.238;2023-06-14T08:24:02;3.35;;;1.90;;
38787;SDS011;24536;45.488;12.238;2023-06-14T08:26:29;3.67;;;2.15;;
38787;SDS011;24536;45.488;12.238;2023-06-14T08:28:55;2.90;;;1.92;;
38787;SDS011;24536;45.488;12.238;2023-06-14T08:31:21;3.28;;;1.95;;
38787;SDS011;24536;45.488;12.238;2023-06-14T08:33:47;4.00;;;2.03;;
38787;SDS011;24536;45.488;12.238;2023-06-14T08:36:13;2.33;;;1.90;;
38787;SDS011;24536;45.488;12.238;2023-06-14T08:38:39;5.30;;;2.28;;
38787;SDS011;24536;45.488;12.238;2023-06-14T08:41:05;2.17;;;1.90;;
38787;SDS011;24536;45.488;12.238;2023-06-14T08:43:31;2.38;;;1.98;;
38787;SDS011;24536;45.488;12.238;2023-06-14T08:45:58;2.35;;;1.95;;
38787;SDS011;24536;45.488;12.238;2023-06-14T08:48:28;2.67;;;2.00;;
38787;SDS011;24536;45.488;12.238;2023-06-14T08:50:58;4.00;;;2.00;;
38787;SDS011;24536;45.488;12.238;2023-06-14T08:53:30;5.57;;;2.17;;
38787;SDS011;24536;45.488;12.238;2023-06-14T08:55:57;5.28;;;2.13;;
38787;SDS011;24536;45.488;12.238;2023-06-14T08:58:26;6.65;;;2.55;;
38787;SDS011;24536;45.488;12.238;2023-06-14T09:00:59;3.95;;;2.00;;
38787;SDS011;24536;45.488;12.238;2023-06-14T09:03:26;4.30;;;2.33;;
38787;SDS011;24536;45.488;12.238;2023-06-14T09:05:59;4.05;;;1.80;;
38787;SDS011;24536;45.488;12.238;2023-06-14T09:08:26;3.72;;;2.03;;
38787;SDS011;24536;45.488;12.238;2023-06-14T09:10:56;2.15;;;1.77;;
38787;SDS011;24536;45.488;12.238;2023-06-14T09:13:22;4.55;;;1.80;;
38787;SDS011;24536;45.488;12.238;2023-06-14T09:15:48;2.75;;;2.10;;
38787;SDS011;24536;45.488;12.238;2023-06-14T09:18:14;3.42;;;1.65;;
38787;SDS011;24536;45.488;12.238;2023-06-14T09:20:40;2.35;;;1.75;;
38787;SDS011;24536;45.488;12.238;2023-06-14T09:23:06;2.42;;;1.60;;
38787;SDS011;24536;45.488;12.238;2023-06-14T09:25:43;2.70;;;1.77;;
38787;SDS011;24536;45.488;12.238;2023-06-14T09:28:08;2.22;;;1.55;;
38787;SDS011;24536;45.488;12.238;2023-06-14T09:30:36;3.55;;;1.83;;
38787;SDS011;24536;45.488;12.238;2023-06-14T09:33:02;6.78;;;2.00;;
38787;SDS011;24536;45.488;12.238;2023-06-14T09:35:30;7.72;;;2.00;;
38787;SDS011;24536;45.488;12.238;2023-06-14T09:37:56;3.97;;;1.70;;
38787;SDS011;24536;45.488;12.238;2023-06-14T09:40:23;5.32;;;2.00;;
38787;SDS011;24536;45.488;12.238;2023-06-14T09:42:49;2.92;;;1.88;;
38787;SDS011;24536;45.488;12.238;2023-06-14T09:45:16;1.90;;;1.60;;
38787;SDS011;24536;45.488;12.238;2023-06-14T09:47:48;2.88;;;1.90;;
38787;SDS011;24536;45.488;12.238;2023-06-14T09:50:14;3.80;;;1.70;;
38787;SDS011;24536;45.488;12.238;2023-06-14T09:52:41;3.83;;;2.45;;
38787;SDS011;24536;45.488;12.238;2023-06-14T09:55:11;3.43;;;1.73;;
38787;SDS011;24536;45.488;12.238;2023-06-14T09:57:38;3.50;;;1.90;;
38787;SDS011;24536;45.488;12.238;2023-06-14T10:00:07;3.33;;;2.15;;
38787;SDS011;24536;45.488;12.238;2023-06-14T10:02:36;3.65;;;2.13;;
38787;SDS011;24536;45.488;12.238;2023-06-14T10:05:07;2.65;;;1.90;;
38787;SDS011;24536;45.488;12.238;2023-06-14T10:08:20;2.33;;;1.80;;
38787;SDS011;24536;45.488;12.238;2023-06-14T10:10:28;2.65;;;2.10;;
38787;SDS011;24536;45.488;12.238;2023-06-14T10:12:54;3.17;;;2.05;;
38787;SDS011;24536;45.488;12.238;2023-06-14T10:15:38;2.50;;;1.60;;
38787;SDS011;24536;45.488;12.238;2023-06-14T10:21:04;4.05;;;2.00;;
38787;SDS011;24536;45.488;12.238;2023-06-14T10:23:41;2.20;;;1.92;;
38787;SDS011;24536;45.488;12.238;2023-06-14T10:26:13;2.70;;;1.83;;
38787;SDS011;24536;45.488;12.238;2023-06-14T10:29:07;2.40;;;1.88;;
38787;SDS011;24536;45.488;12.238;2023-06-14T10:31:40;2.10;;;1.90;;
38787;SDS011;24536;45.488;12.238;2023-06-14T10:34:07;2.20;;;1.88;;
38787;SDS011;24536;45.488;12.238;2023-06-14T10:36:33;2.50;;;2.05;;
38787;SDS011;24536;45.488;12.238;2023-06-14T10:39:16;3.00;;;1.92;;
38787;SDS011;24536;45.488;12.238;2023-06-14T10:41:50;3.42;;;2.33;;
38787;SDS011;24536;45.488;12.238;2023-06-14T10:46:52;2.88;;;1.92;;
38787;SDS011;24536;45.488;12.238;2023-06-14T10:49:18;1.90;;;1.80;;
38787;SDS011;24536;45.488;12.238;2023-06-14T10:51:45;2.10;;;1.75;;
38787;SDS011;24536;45.488;12.238;2023-06-14T10:54:15;3.15;;;1.95;;
38787;SDS011;24536;45.488;12.238;2023-06-14T10:56:48;2.22;;;1.77;;
38787;SDS011;24536;45.488;12.238;2023-06-14T10:59:14;2.65;;;1.92;;
38787;SDS011;24536;45.488;12.238;2023-06-14T11:01:41;3.00;;;2.03;;
38787;SDS011;24536;45.488;12.238;2023-06-14T11:04:34;2.72;;;1.95;;
38787;SDS011;24536;45.488;12.238;2023-06-14T11:10:35;3.78;;;1.92;;
38787;SDS011;24536;45.488;12.238;2023-06-14T11:13:06;2.63;;;1.80;;
38787;SDS011;24536;45.488;12.238;2023-06-14T11:15:34;3.13;;;1.90;;
38787;SDS011;24536;45.488;12.238;2023-06-14T11:18:01;2.85;;;2.25;;
38787;SDS011;24536;45.488;12.238;2023-06-14T11:20:30;1.92;;;1.67;;
38787;SDS011;24536;45.488;12.238;2023-06-14T11:22:57;3.17;;;1.88;;
38787;SDS011;24536;45.488;12.238;2023-06-14T11:25:24;2.58;;;1.73;;
38787;SDS011;24536;45.488;12.238;2023-06-14T11:27:50;2.33;;;1.92;;
38787;SDS011;24536;45.488;12.238;2023-06-14T11:30:16;2.22;;;2.03;;
38787;SDS011;24536;45.488;12.238;2023-06-14T11:32:42;2.25;;;2.05;;
38787;SDS011;24536;45.488;12.238;2023-06-14T11:35:10;2.58;;;1.88;;
38787;SDS011;24536;45.488;12.238;2023-06-14T11:37:36;3.25;;;1.92;;
38787;SDS011;24536;45.488;12.238;2023-06-14T11:40:03;3.67;;;1.75;;
38787;SDS011;24536;45.488;12.238;2023-06-14T11:42:34;3.63;;;2.17;;
38787;SDS011;24536;45.488;12.238;2023-06-14T11:45:01;2.65;;;2.05;;
38787;SDS011;24536;45.488;12.238;2023-06-14T11:47:34;4.28;;;1.98;;
38787;SDS011;24536;45.488;12.238;2023-06-14T11:50:01;2.38;;;1.80;;
38787;SDS011;24536;45.488;12.238;2023-06-14T11:52:27;4.07;;;2.38;;
38787;SDS011;24536;45.488;12.238;2023-06-14T11:54:53;2.80;;;2.10;;
38787;SDS011;24536;45.488;12.238;2023-06-14T11:57:20;4.40;;;2.53;;
38787;SDS011;24536;45.488;12.238;2023-06-14T11:59:45;4.18;;;1.90;;
38787;SDS011;24536;45.488;12.238;2023-06-14T12:02:15;2.47;;;1.77;;
38787;SDS011;24536;45.488;12.238;2023-06-14T12:04:46;2.58;;;2.17;;
38787;SDS011;24536;45.488;12.238;2023-06-14T12:07:16;2.65;;;1.88;;
38787;SDS011;24536;45.488;12.238;2023-06-14T12:12:22;2.63;;;2.00;;
38787;SDS011;24536;45.488;12.238;2023-06-14T12:14:50;2.90;;;1.63;;
38787;SDS011;24536;45.488;12.238;2023-06-14T12:17:16;2.42;;;1.90;;
38787;SDS011;24536;45.488;12.238;2023-06-14T12:19:43;3.45;;;2.35;;
38787;SDS011;24536;45.488;12.238;2023-06-14T12:22:10;2.78;;;1.85;;
38787;SDS011;24536;45.488;12.238;2023-06-14T12:24:36;2.90;;;1.77;;
38787;SDS011;24536;45.488;12.238;2023-06-14T12:27:03;4.63;;;2.30;;
38787;SDS011;24536;45.488;12.238;2023-06-14T12:29:29;4.50;;;2.35;;
38787;SDS011;24536;45.488;12.238;2023-06-14T12:31:55;2.00;;;1.80;;
38787;SDS011;24536;45.488;12.238;2023-06-14T12:34:25;2.20;;;2.00;;
38787;SDS011;24536;45.488;12.238;2023-06-14T12:36:52;2.40;;;2.13;;
38787;SDS011;24536;45.488;12.238;2023-06-14T12:39:21;3.90;;;2.17;;
38787;SDS011;24536;45.488;12.238;2023-06-14T12:41:47;3.47;;;1.77;;
38787;SDS011;24536;45.488;12.238;2023-06-14T12:44:13;2.40;;;1.73;;
38787;SDS011;24536;45.488;12.238;2023-06-14T12:46:40;2.13;;;1.77;;
38787;SDS011;24536;45.488;12.238;2023-06-14T12:49:10;2.60;;;1.80;;
38787;SDS011;24536;45.488;12.238;2023-06-14T12:51:37;4.40;;;2.03;;
38787;SDS011;24536;45.488;12.238;2023-06-14T12:54:04;3.47;;;2.10;;
38787;SDS011;24536;45.488;12.238;2023-06-14T12:56:29;3.65;;;1.90;;
38787;SDS011;24536;45.488;12.238;2023-06-14T12:58:55;2.78;;;2.20;;
38787;SDS011;24536;45.488;12.238;2023-06-14T13:01:21;3.05;;;2.20;;
38787;SDS011;24536;45.488;12.238;2023-06-14T13:03:47;2.38;;;2.17;;
38787;SDS011;24536;45.488;12.238;2023-06-14T13:06:14;3.97;;;1.90;;
38787;SDS011;24536;45.488;12.238;2023-06-14T13:08:40;2.67;;;2.00;;
38787;SDS011;24536;45.488;12.238;2023-06-14T13:11:06;4.60;;;2.10;;
38787;SDS011;24536;45.488;12.238;2023-06-14T13:13:32;4.28;;;2.17;;
38787;SDS011;24536;45.488;12.238;2023-06-14T13:15:58;2.00;;;1.80;;
38787;SDS011;24536;45.488;12.238;2023-06-14T13:18:23;3.40;;;1.80;;
38787;SDS011;24536;45.488;12.238;2023-06-14T13:20:49;2.83;;;2.05;;
38787;SDS011;24536;45.488;12.238;2023-06-14T13:23:15;2.53;;;2.10;;
38787;SDS011;24536;45.488;12.238;2023-06-14T13:25:41;2.55;;;1.83;;
38787;SDS011;24536;45.488;12.238;2023-06-14T13:28:07;4.30;;;2.65;;
38787;SDS011;24536;45.488;12.238;2023-06-14T13:30:33;3.00;;;1.83;;
38787;SDS011;24536;45.488;12.238;2023-06-14T13:33:00;4.05;;;2.40;;
38787;SDS011;24536;45.488;12.238;2023-06-14T13:35:25;3.92;;;2.10;;
38787;SDS011;24536;45.488;12.238;2023-06-14T13:37:52;2.15;;;1.90;;
38787;SDS011;24536;45.488;12.238;2023-06-14T13:40:17;2.40;;;2.03;;
38787;SDS011;24536;45.488;12.238;2023-06-14T13:42:43;5.78;;;2.20;;
38787;SDS011;24536;45.488;12.238;2023-06-14T13:45:10;2.28;;;1.95;;
38787;SDS011;24536;45.488;12.238;2023-06-14T13:47:36;4.32;;;2.28;;
38787;SDS011;24536;45.488;12.238;2023-06-14T13:50:03;2.63;;;2.30;;
38787;SDS011;24536;45.488;12.238;2023-06-14T13:52:29;5.50;;;2.00;;
38787;SDS011;24536;45.488;12.238;2023-06-14T13:54:55;3.03;;;1.90;;
38787;SDS011;24536;45.488;12.238;2023-06-14T13:57:20;3.47;;;1.80;;
38787;SDS011;24536;45.488;12.238;2023-06-14T13:59:46;5.32;;;2.30;;
38787;SDS011;24536;45.488;12.238;2023-06-14T14:02:13;6.35;;;2.92;;
38787;SDS011;24536;45.488;12.238;2023-06-14T14:04:39;3.17;;;2.00;;
38787;SDS011;24536;45.488;12.238;2023-06-14T14:07:06;6.30;;;2.53;;
38787;SDS011;24536;45.488;12.238;2023-06-14T14:09:32;4.38;;;2.42;;
38787;SDS011;24536;45.488;12.238;2023-06-14T14:11:59;3.90;;;2.17;;
38787;SDS011;24536;45.488;12.238;2023-06-14T14:14:27;2.22;;;1.90;;
38787;SDS011;24536;45.488;12.238;2023-06-14T14:16:53;2.35;;;1.67;;
38787;SDS011;24536;45.488;12.238;2023-06-14T14:19:19;4.38;;;2.70;;
38787;SDS011;24536;45.488;12.238;2023-06-14T14:21:48;3.65;;;2.13;;
38787;SDS011;24536;45.488;12.238;2023-06-14T14:24:14;5.55;;;2.05;;
38787;SDS011;24536;45.488;12.238;2023-06-14T14:26:41;3.58;;;1.98;;
38787;SDS011;24536;45.488;12.238;2023-06-14T14:29:07;3.05;;;2.22;;
38787;SDS011;24536;45.488;12.238;2023-06-14T14:31:33;2.97;;;1.83;;
38787;SDS011;24536;45.488;12.238;2023-06-14T14:33:59;2.10;;;1.88;;
38787;SDS011;24536;45.488;12.238;2023-06-14T14:36:25;1.90;;;1.70;;
38787;SDS011;24536;45.488;12.238;2023-06-14T14:38:50;2.80;;;1.92;;
38787;SDS011;24536;45.488;12.238;2023-06-14T14:41:19;4.18;;;2.15;;
38787;SDS011;24536;45.488;12.238;2023-06-14T14:43:45;2.63;;;2.35;;
38787;SDS011;24536;45.488;12.238;2023-06-14T14:46:10;3.85;;;2.17;;
38787;SDS011;24536;45.488;12.238;2023-06-14T14:48:36;4.90;;;2.17;;